Historyczne dane pomiarowe

Dodano dane terminowe – wersja testowa.

Dane z okresu 1951-2019

Wersja bazy: 1.34 [2019-03-16, lista zmian], aktualizacja planowana na 2019-04-15

Dane meteo z obszaru Polski uzyskane na podstawie danych udostępnionych przez Instytut Meteorologii i Gospodarki Wodnej – Państwowy Instytut Badawczy.

 

Wybierz Datę:    

       

TemperaturaWilgotnośćWiatrCiśnienieOpadyŚniegCzas trwania zjawisk
 Stacja t tx tn tng RH VA  wxwx mslp ppp RRR   cm mm wxwxwxwxwxwxwx
1983-08-14 12.4 15.6 9.8- 85.5- 4.3 3.3---- 1.2------------
1983-08-13 14.0 17.0 10.6- 90.8- 6.3 7.0---- 12.7------------
1983-08-12 17.4 22.2 10.0- 90.0- 5.7 2.0---- 18.0------------
1983-08-11 16.8 18.9 14.4- 94.8- 6.3 3.3---- 6.7------------
1983-08-10 16.0 21.6 9.8- 91.5- 6.7 2.0---- 4.6------------
1983-08-09 16.3 22.7 13.2- 88.8- 6.0 1.0---- 0.0------------
1983-08-08 16.3 20.7 12.3- 93.8- 7.3 2.7---- 8.4------------
1983-08-07 15.0 17.2 12.8- 94.8- 6.3 2.0---- 19.6------------
1983-08-06 14.3 18.8 10.8- 78.3- 6.0 2.0---- 0.0------------
1983-08-05 10.4 12.7 9.2- 94.8- 8.0 1.7---- 2.2------------
1983-08-04 12.0 20.3 10.3- 94.3- 8.0 2.0---- 11.8------------
1983-08-03 18.6 22.9 14.5- 91.0- 3.0 1.7---- 6.7------------
1983-08-02 21.0 27.6 14.4- 67.3- 1.3 1.0---- 0.0------------
1983-08-01 16.3 24.8 5.5- 77.0- 0.7 1.3---- 0.0------------
1983-07-31 14.5 20.2 8.3- 85.0- 2.0 1.3---- 0.0------------
1983-07-30 15.0 18.9 10.3- 86.3- 6.0 2.3---- 0.7------------
1983-07-29 18.2 22.2 11.8- 78.8- 4.0 1.3---- 0.5------------
1983-07-28 20.4 25.6 16.9- 77.0- 2.7 1.0---- 0.0------------
1983-07-27 19.6 26.3 13.9- 82.0- 1.3 1.0---- 0.0------------
1983-07-26 18.5 23.7 12.8- 65.0- 2.3 4.0---- 0.0------------
1983-07-25 13.6 18.7 10.1- 86.5- 5.7 1.0---- 0.0------------
1983-07-24 14.8 17.2 8.3- 90.3- 6.7 1.0---- 2.8------------
1983-07-23 13.7 19.2 10.8- 80.0- 5.7 2.3---- 0.0------------
1983-07-22 11.3 14.2 8.3- 77.3- 7.0 1.0---- 9.5------------
1983-07-21 11.4 15.2 8.3- 74.0- 5.3 4.0---- 0.0------------
1983-07-20 16.0 21.9 9.8- 95.0- 8.0 5.7---- 15.7------------
1983-07-19 19.4 26.6 11.3- 81.0- 2.3 1.3---- 19.8------------
1983-07-18 19.2 25.6 11.8- 81.5- 1.7 2.0---- 0.0------------
1983-07-17 18.2 25.2 11.8- 81.8- 3.7 1.3---- 0.0------------
1983-07-16 17.2 25.5 8.3- 76.5- 1.3 1.3---- 0.0------------
1983-07-15 16.9 21.9 14.4- 83.0- 4.0 1.7---- 0.0------------
1983-07-14 15.6 20.0 12.8- 93.5- 7.3 3.0---- 4.6------------
1983-07-13 14.8 16.9 11.4- 96.0- 8.0 1.0---- 47.3------------
1983-07-12 15.2 20.7 11.3- 91.5- 7.3 3.3---- 18.0------------
1983-07-11 16.0 22.7 11.4- 87.0- 5.3 1.0---- 0.9------------
1983-07-10 19.1 25.3 9.8- 73.0- 1.3 2.0---- 0.0------------
1983-07-09 17.9 24.5 7.4- 66.3- 1.3 3.3---- 0.0------------
1983-07-08 17.3 22.8 7.4- 67.8- 0.0 3.3---- 0.0------------
1983-07-07 18.0 24.7 8.8- 74.0- 0.0 1.0---- 0.0------------
1983-07-06 18.2 24.6 9.3- 75.8- 0.0 1.0---- 0.0------------
1983-07-05 17.2 24.7 7.4- 76.0- 0.3 1.3---- 0.0------------
1983-07-04 15.9 22.7 6.9- 78.3- 1.0 3.0---- 0.0------------
1983-07-03 17.0 21.2 13.4- 83.5- 5.0 5.0---- 0.0------------
1983-07-02 16.7 21.7 11.2- 89.8- 6.0 2.0---- 3.9------------
1983-07-01 18.2 24.7 10.3- 75.8- 1.7 1.0---- 0.0------------
1983-06-30 14.0 21.7 3.6- 76.0- 0.7 1.0---- 0.0------------
1983-06-29 13.5 16.7 9.8- 83.0- 4.3 2.3---- 0.0------------
1983-06-28 15.7 19.6 14.1- 96.0- 8.0 2.3---- 19.0------------
1983-06-27 17.4 23.2 12.3- 90.3- 6.3 1.0---- 2.7------------
1983-06-26 15.3 19.2 9.8- 88.3- 5.3 2.0---- 14.7------------
1983-06-25 18.0 25.2 10.3- 68.5- 2.3 4.0---- 0.0------------
1983-06-24 15.4 22.2 3.6- 69.8- 1.0 2.0---- 0.0------------
1983-06-23 13.2 19.2 2.5- 72.8- 0.7 3.0---- 0.0------------
1983-06-22 14.3 17.7 10.0- 68.8- 0.7 4.0---- 0.0------------
1983-06-21 16.7 22.5 11.8- 84.5- 3.7 2.0---- 0.0------------
1983-06-20 15.2 19.2 12.5- 93.0- 5.3 4.0---- 0.0------------
1983-06-19 14.8 18.8 10.4- 94.0- 6.3 7.7---- 30.5------------
1983-06-18 10.7 11.6 9.3- 97.5- 8.0 7.0---- 39.3------------
1983-06-17 10.2 11.2 8.3- 91.5- 8.0 9.0---- 9.8------------
1983-06-16 10.4 14.2 7.9- 97.8- 8.0 9.0---- 10.0------------
552.4 ms

 

Źródłem pochodzenia danych jest Instytut Meteorologii i Gospodarki Wodnej – Państwowy Instytut Badawczy. Dane Instytutu Meteorologii i Gospodarki Wodnej – Państwowego Instytutu Badawczego zostały przetworzone.

Dane źródłowe można odnaleźć na stronie https://dane.imgw.pl